createdAt,value
2023-03-06T00:05:01.491Z,44.52
2023-03-06T00:10:06.595Z,44.02
2023-03-06T00:15:12.251Z,44.50
2023-03-06T00:20:17.885Z,44.37
2023-03-06T00:25:23.788Z,44.05
2023-03-06T00:30:28.476Z,43.98
2023-03-06T00:35:33.336Z,44.09
2023-03-06T00:40:38.160Z,45.33
2023-03-06T00:45:42.788Z,43.86
2023-03-06T00:50:48.346Z,43.76
2023-03-06T00:55:53.544Z,43.24
2023-03-06T01:00:58.169Z,44.33
2023-03-06T01:06:02.953Z,43.78
2023-03-06T01:11:07.779Z,44.18
2023-03-06T01:16:16.558Z,43.11
2023-03-06T01:21:21.391Z,44.50
2023-03-06T01:26:25.965Z,42.58
2023-03-06T01:31:30.963Z,43.05
2023-03-06T01:36:35.699Z,42.44
2023-03-06T01:41:40.446Z,42.18
2023-03-06T01:46:47.098Z,42.13
2023-03-06T01:52:04.994Z,42.10
2023-03-06T01:57:16.376Z,41.63
2023-03-06T02:02:22.526Z,41.68
2023-03-06T02:07:27.424Z,41.45
2023-03-06T02:12:32.671Z,41.20
2023-03-06T02:17:38.007Z,41.09
2023-03-06T02:22:51.749Z,40.26
2023-03-06T02:27:56.447Z,41.01
2023-03-06T02:33:01.930Z,40.17
2023-03-06T02:38:16.511Z,40.09
2023-03-06T02:43:31.938Z,40.37
2023-03-06T02:48:37.039Z,39.29
2023-03-06T02:53:41.868Z,39.71
2023-03-06T02:58:46.480Z,39.81
2023-03-06T03:03:51.273Z,39.42
2023-03-06T03:08:58.584Z,38.83
2023-03-06T03:14:03.320Z,37.93
2023-03-06T03:19:09.411Z,38.46
2023-03-06T03:24:14.971Z,38.51
2023-03-06T03:29:20.644Z,38.81
2023-03-06T03:34:25.697Z,37.59
2023-03-06T03:39:31.589Z,37.91
2023-03-06T03:44:36.346Z,37.77
2023-03-06T03:49:41.401Z,37.12
2023-03-06T03:54:46.162Z,37.44
2023-03-06T03:59:50.960Z,37.16
2023-03-06T04:05:16.333Z,36.60
2023-03-06T04:10:21.279Z,34.79
2023-03-06T04:15:27.379Z,35.75
2023-03-06T04:20:32.265Z,36.06
2023-03-06T04:25:38.454Z,35.42
2023-03-06T04:30:45.972Z,35.22
2023-03-06T04:35:51.833Z,35.18
2023-03-06T04:41:02.802Z,32.32
2023-03-06T04:46:07.704Z,35.03
2023-03-06T04:51:15.042Z,34.16
2023-03-06T04:56:19.800Z,31.58
2023-03-06T05:01:24.804Z,33.54
2023-03-06T05:06:29.636Z,33.36
2023-03-06T05:11:34.324Z,32.78
2023-03-06T05:16:39.067Z,31.61
2023-03-06T05:21:43.786Z,32.12
2023-03-06T05:26:48.479Z,31.67
2023-03-06T05:31:53.167Z,30.32
2023-03-06T05:36:58.138Z,30.76
2023-03-06T05:42:02.770Z,31.64
2023-03-06T05:47:07.870Z,26.09
2023-03-06T05:52:14.873Z,31.20
2023-03-06T05:57:21.811Z,31.46
2023-03-06T06:02:26.479Z,29.28
2023-03-06T06:07:31.300Z,29.14
2023-03-06T06:12:36.692Z,22.53
2023-03-06T06:17:41.311Z,28.58
2023-03-06T06:22:46.127Z,29.54
2023-03-06T06:27:50.799Z,25.40
2023-03-06T06:32:55.503Z,29.02
2023-03-06T06:38:00.160Z,28.88
2023-03-06T06:43:04.817Z,26.38
2023-03-06T06:48:09.977Z,24.82
2023-03-06T06:53:14.597Z,17.27
2023-03-06T06:58:19.718Z,24.98
2023-03-06T07:03:28.434Z,26.53
2023-03-06T07:08:33.610Z,27.00
2023-03-06T07:13:38.368Z,24.70
2023-03-06T07:18:43.057Z,20.79
2023-03-06T07:23:47.941Z,18.27
2023-03-06T07:28:54.834Z,19.37
2023-03-06T07:34:02.507Z,20.90
2023-03-06T07:39:10.413Z,18.87
2023-03-06T07:44:15.277Z,18.67
2023-03-06T07:49:19.926Z,18.04
2023-03-06T07:54:24.568Z,17.76
2023-03-06T07:59:29.513Z,18.03
2023-03-06T08:04:34.258Z,17.23
2023-03-06T08:09:39.044Z,16.59
2023-03-06T08:14:44.005Z,16.90
2023-03-06T08:19:48.739Z,17.54
2023-03-06T08:24:57.571Z,16.65
2023-03-06T08:30:02.909Z,20.04
2023-03-06T08:35:08.233Z,15.22
2023-03-06T08:40:13.640Z,17.53
2023-03-06T08:45:18.286Z,21.36
2023-03-06T08:50:23.384Z,18.88
2023-03-06T08:55:29.306Z,17.51
2023-03-06T09:00:35.221Z,18.46
2023-03-06T09:05:42.427Z,21.29
2023-03-06T09:10:50.515Z,22.80
2023-03-06T09:15:55.395Z,22.32
2023-03-06T09:21:00.141Z,23.21
2023-03-06T09:26:05.084Z,23.17
2023-03-06T09:31:16.281Z,23.51
2023-03-06T09:36:23.140Z,23.95
2023-03-06T09:41:36.923Z,24.47
2023-03-06T09:47:06.657Z,24.86
2023-03-06T09:52:29.400Z,25.20
2023-03-06T09:57:39.956Z,24.46
2023-03-06T10:02:53.135Z,25.20
2023-03-06T10:08:04.951Z,25.08
2023-03-06T10:13:22.209Z,25.23
2023-03-06T10:18:26.908Z,24.21
2023-03-06T10:23:38.189Z,25.35
2023-03-06T10:29:09.362Z,25.63
2023-03-06T10:34:23.043Z,24.76
2023-03-06T10:39:29.484Z,24.67
2023-03-06T10:44:34.130Z,25.40
2023-03-06T10:49:40.995Z,25.28
2023-03-06T10:54:47.341Z,25.03
2023-03-06T10:59:55.453Z,25.26
2023-03-06T11:05:02.587Z,25.47
2023-03-06T11:10:26.509Z,26.06
2023-03-06T11:15:31.964Z,25.77
2023-03-06T11:20:51.587Z,24.50
2023-03-06T11:26:17.804Z,24.99
2023-03-06T11:31:31.045Z,25.57
2023-03-06T11:37:06.239Z,25.43
2023-03-06T11:42:34.195Z,25.56
2023-03-06T11:48:05.625Z,25.57
2023-03-06T11:53:18.754Z,26.47
2023-03-06T11:58:41.896Z,26.05
2023-03-06T12:04:14.088Z,26.30
2023-03-06T12:09:28.388Z,26.40
2023-03-06T12:14:33.426Z,26.58
2023-03-06T12:19:56.697Z,27.27
2023-03-06T12:25:08.423Z,27.40
2023-03-06T12:30:50.005Z,27.63
2023-03-06T12:36:21.164Z,28.13
2023-03-06T12:41:40.906Z,27.84
2023-03-06T12:46:56.009Z,28.16
2023-03-06T12:52:02.681Z,27.12
2023-03-06T12:57:10.941Z,27.39
2023-03-06T13:02:31.128Z,26.83
2023-03-06T13:07:57.515Z,26.55
2023-03-06T13:13:25.209Z,27.01
2023-03-06T13:18:29.916Z,26.84
2023-03-06T13:23:35.325Z,26.85
2023-03-06T13:28:47.537Z,27.20
2023-03-06T13:33:55.495Z,27.91
2023-03-06T13:39:11.690Z,27.62
2023-03-06T13:44:40.337Z,27.64
2023-03-06T13:49:50.312Z,27.24
2023-03-06T13:55:42.371Z,27.68
2023-03-06T14:01:05.658Z,27.85
2023-03-06T14:06:38.758Z,27.42
2023-03-06T14:11:52.385Z,27.99
2023-03-06T14:16:59.086Z,27.51
2023-03-06T14:22:06.554Z,27.99
2023-03-06T14:27:23.194Z,27.91
2023-03-06T14:32:28.301Z,28.55
2023-03-06T14:37:38.495Z,28.02
2023-03-06T14:42:43.641Z,28.73
2023-03-06T14:47:55.796Z,28.23
2023-03-06T14:53:06.595Z,28.20
2023-03-06T14:58:19.308Z,28.82
2023-03-06T15:03:33.724Z,29.94
2023-03-06T15:08:42.787Z,29.46
2023-03-06T15:14:02.894Z,29.45
2023-03-06T15:19:18.659Z,29.76
2023-03-06T15:24:39.394Z,29.80
2023-03-06T15:29:44.525Z,30.71
2023-03-06T15:34:49.292Z,30.04
2023-03-06T15:40:13.307Z,30.25
2023-03-06T15:45:24.353Z,30.83
2023-03-06T15:50:31.401Z,31.05
2023-03-06T15:55:36.243Z,30.54
2023-03-06T16:00:41.225Z,30.21
2023-03-06T16:05:46.247Z,30.51
2023-03-06T16:10:53.111Z,30.23
2023-03-06T16:15:58.277Z,30.71
2023-03-06T16:21:02.953Z,31.16
2023-03-06T16:26:17.487Z,30.69
2023-03-06T16:31:22.164Z,30.91
2023-03-06T16:36:28.757Z,31.19
2023-03-06T16:41:33.484Z,31.30
2023-03-06T16:46:42.152Z,31.49
2023-03-06T16:51:47.383Z,30.89
2023-03-06T16:56:51.978Z,30.51
2023-03-06T17:01:56.706Z,30.71
2023-03-06T17:07:01.326Z,30.42
2023-03-06T17:12:06.143Z,31.41
2023-03-06T17:17:10.838Z,30.53
2023-03-06T17:22:17.034Z,30.78
2023-03-06T17:27:24.510Z,30.56
2023-03-06T17:32:30.339Z,31.09
2023-03-06T17:37:35.167Z,30.78
2023-03-06T17:42:39.936Z,31.05
2023-03-06T17:47:44.656Z,31.37
2023-03-06T17:52:49.312Z,31.08
2023-03-06T17:57:54.719Z,31.52
2023-03-06T18:02:59.374Z,31.83
2023-03-06T18:08:04.752Z,31.67
2023-03-06T18:13:10.540Z,33.20
2023-03-06T18:18:15.220Z,31.95
2023-03-06T18:23:20.239Z,32.02
2023-03-06T18:28:24.845Z,33.39
2023-03-06T18:33:29.507Z,33.57
2023-03-06T18:38:34.120Z,33.67
2023-03-06T18:43:39.722Z,33.86
2023-03-06T18:48:44.448Z,33.30
2023-03-06T18:53:49.468Z,34.55
2023-03-06T18:58:55.089Z,33.75
2023-03-06T19:04:08.621Z,33.56
2023-03-06T19:09:13.252Z,33.85
2023-03-06T19:14:18.509Z,33.32
2023-03-06T19:19:27.386Z,33.70
2023-03-06T19:24:32.062Z,33.79
2023-03-06T19:29:36.727Z,33.60
2023-03-06T19:34:41.394Z,34.10
2023-03-06T19:39:46.098Z,34.33
2023-03-06T19:44:50.855Z,33.69
2023-03-06T19:49:55.561Z,34.28
2023-03-06T19:55:00.348Z,34.83
2023-03-06T20:00:06.043Z,35.58
2023-03-06T20:05:17.262Z,34.39
2023-03-06T20:10:21.923Z,34.72
2023-03-06T20:15:27.360Z,36.08
2023-03-06T20:20:32.097Z,34.34
2023-03-06T20:25:39.660Z,34.39
2023-03-06T20:30:45.348Z,34.83
2023-03-06T20:35:50.073Z,34.04
2023-03-06T20:40:59.046Z,34.12
2023-03-06T20:46:05.200Z,34.33
2023-03-06T20:51:33.871Z,35.16
2023-03-06T20:56:40.751Z,35.63
2023-03-06T21:01:46.276Z,35.73
2023-03-06T21:06:54.043Z,35.68
2023-03-06T21:11:58.741Z,35.37
2023-03-06T21:17:03.468Z,34.82
2023-03-06T21:22:08.084Z,35.33
2023-03-06T21:27:12.634Z,34.71
2023-03-06T21:32:17.480Z,35.32
2023-03-06T21:37:22.090Z,35.33
2023-03-06T21:42:26.859Z,35.23
2023-03-06T21:47:32.829Z,35.62
2023-03-06T21:52:37.676Z,35.96
2023-03-06T21:57:42.648Z,36.35
2023-03-06T22:02:47.646Z,36.52
2023-03-06T22:07:52.655Z,36.73
2023-03-06T22:12:57.262Z,36.20
2023-03-06T22:18:02.077Z,35.85
2023-03-06T22:23:06.764Z,36.27
2023-03-06T22:28:11.485Z,35.98
2023-03-06T22:33:16.196Z,36.00
2023-03-06T22:38:20.793Z,36.73
2023-03-06T22:43:24.973Z,35.97
2023-03-06T22:48:29.849Z,35.92
2023-03-06T22:53:35.246Z,36.48
2023-03-06T22:58:40.271Z,37.04
2023-03-06T23:03:48.021Z,36.94
2023-03-06T23:09:13.623Z,37.06
2023-03-06T23:14:36.086Z,37.88
2023-03-06T23:19:58.568Z,37.14
2023-03-06T23:25:20.452Z,36.65
2023-03-06T23:30:25.338Z,37.12
2023-03-06T23:35:30.081Z,37.48
2023-03-06T23:40:35.900Z,36.42
2023-03-06T23:45:40.547Z,36.27
2023-03-06T23:50:45.115Z,36.04
2023-03-06T23:55:51.641Z,36.56
